Terminal Aerodrome Forecast
Issued by NWS Memphis, TN

Home | Current Version | Previous Version | Text Only | Print | Product List | Glossary On
Versions: 1 2 3 4 5 6 7 8 9 10 11 12 13 14
000
FTUS44 KMEG 261723
TAFMKL
TAF
KMKL 261723Z 2618/2718 14005KT P6SM FEW050 BKN250
     FM261900 21008KT P6SM VCSH OVC050
     FM270000 27005KT P6SM BKN025
     FM270400 29010KT P6SM SCT250
     FM271200 32010KT P6SM BKN250=

USA.gov is the U.S. government's official web portal to all federal, state and local government web resources and services.